createdAt,value
2017-07-12T00:01:25.862Z,3.53
2017-07-12T00:03:54.168Z,4.00
2017-07-12T00:06:22.493Z,5.23
2017-07-12T00:08:50.877Z,3.67
2017-07-12T00:11:19.206Z,3.43
2017-07-12T00:13:47.495Z,4.20
2017-07-12T00:16:15.921Z,3.30
2017-07-12T00:18:44.251Z,3.63
2017-07-12T00:21:13.310Z,3.40
2017-07-12T00:23:41.594Z,4.20
2017-07-12T00:26:09.938Z,5.50
2017-07-12T00:28:38.232Z,4.37
2017-07-12T00:31:06.525Z,4.03
2017-07-12T00:33:34.846Z,4.50
2017-07-12T00:36:03.138Z,4.10
2017-07-12T00:38:31.466Z,5.00
2017-07-12T00:40:59.762Z,4.23
2017-07-12T00:43:28.054Z,4.90
2017-07-12T00:45:56.376Z,5.33
2017-07-12T00:48:24.674Z,6.03
2017-07-12T00:50:52.999Z,7.60
2017-07-12T00:53:21.354Z,9.10
2017-07-12T00:55:49.647Z,7.23
2017-07-12T00:58:17.972Z,6.10
2017-07-12T01:00:46.305Z,6.37
2017-07-12T01:03:14.613Z,8.73
2017-07-12T01:05:42.910Z,10.13
2017-07-12T01:08:11.589Z,10.40
2017-07-12T01:10:39.883Z,10.40
2017-07-12T01:13:08.179Z,13.20
2017-07-12T01:15:36.521Z,11.33
2017-07-12T01:18:04.824Z,9.30
2017-07-12T01:20:33.133Z,10.23
2017-07-12T01:23:01.456Z,10.20
2017-07-12T01:25:30.551Z,10.17
2017-07-12T01:27:58.838Z,8.93
2017-07-12T01:30:27.178Z,9.40
2017-07-12T01:32:56.265Z,10.70
2017-07-12T01:35:24.567Z,15.43
2017-07-12T01:37:52.898Z,12.37
2017-07-12T01:40:21.201Z,10.80
2017-07-12T01:42:50.342Z,12.40
2017-07-12T01:45:18.642Z,10.70
2017-07-12T01:47:47.703Z,10.60
2017-07-12T01:50:16.077Z,13.90
2017-07-12T01:52:44.376Z,10.37
2017-07-12T01:55:12.706Z,12.03
2017-07-12T01:57:41.047Z,14.40
2017-07-12T02:00:09.343Z,11.20
2017-07-12T02:02:37.670Z,13.13
2017-07-12T02:05:06.752Z,13.13
2017-07-12T02:07:35.109Z,12.93
2017-07-12T02:10:03.398Z,9.70
2017-07-12T02:12:32.482Z,9.33
2017-07-12T02:15:00.813Z,9.30
2017-07-12T02:17:29.128Z,8.57
2017-07-12T02:19:58.263Z,10.77
2017-07-12T02:22:26.570Z,10.57
2017-07-12T02:24:54.957Z,8.33
2017-07-12T02:27:24.066Z,10.00
2017-07-12T02:29:53.178Z,7.57
2017-07-12T02:32:21.470Z,9.30
2017-07-12T02:34:49.763Z,12.63
2017-07-12T02:37:18.103Z,14.13
2017-07-12T02:39:47.169Z,14.03
2017-07-12T02:42:15.467Z,15.50
2017-07-12T02:44:43.832Z,11.80
2017-07-12T02:47:12.131Z,12.87
2017-07-12T02:49:41.192Z,10.57
2017-07-12T02:52:09.538Z,13.20
2017-07-12T02:54:37.834Z,12.03
2017-07-12T02:57:06.203Z,11.17
2017-07-12T02:59:34.653Z,15.60
2017-07-12T03:02:03.718Z,17.73
2017-07-12T03:04:32.126Z,15.73
2017-07-12T03:07:00.462Z,12.27
2017-07-12T03:09:28.805Z,11.47
2017-07-12T03:11:57.103Z,12.50
2017-07-12T03:14:25.474Z,15.87
2017-07-12T03:16:53.905Z,19.83
2017-07-12T03:19:22.966Z,10.70
2017-07-12T03:21:51.299Z,12.10
2017-07-12T03:24:19.610Z,13.40
2017-07-12T03:26:47.918Z,17.47
2017-07-12T03:29:17.038Z,15.90
2017-07-12T03:31:45.335Z,13.70
2017-07-12T03:34:13.672Z,11.70
2017-07-12T03:36:42.046Z,11.87
2017-07-12T03:39:11.111Z,14.93
2017-07-12T03:41:39.449Z,15.13
2017-07-12T03:44:07.787Z,15.70
2017-07-12T03:46:36.088Z,14.67
2017-07-12T03:49:04.389Z,11.50
2017-07-12T03:51:32.730Z,14.40
2017-07-12T03:54:01.030Z,16.20
2017-07-12T03:56:29.326Z,13.97
2017-07-12T03:58:57.652Z,15.53
2017-07-12T04:01:25.999Z,10.60
2017-07-12T04:03:54.301Z,14.10
2017-07-12T04:06:22.631Z,12.33
2017-07-12T04:08:50.961Z,9.03
2017-07-12T04:11:19.254Z,11.67
2017-07-12T04:13:47.551Z,10.40
2017-07-12T04:16:15.910Z,13.13
2017-07-12T04:18:44.215Z,13.73
2017-07-12T04:21:12.518Z,12.60
2017-07-12T04:23:40.874Z,11.50
2017-07-12T04:26:09.166Z,9.47
2017-07-12T04:28:37.461Z,11.07
2017-07-12T04:31:05.895Z,13.40
2017-07-12T04:33:34.199Z,12.93
2017-07-12T04:36:02.539Z,10.37
2017-07-12T04:38:30.845Z,10.10
2017-07-12T04:40:59.153Z,10.10
2017-07-12T04:43:27.537Z,12.33
2017-07-12T04:45:56.619Z,14.67
2017-07-12T04:48:24.920Z,11.23
2017-07-12T04:50:53.272Z,11.50
2017-07-12T04:53:21.573Z,11.07
2017-07-12T04:55:49.876Z,11.70
2017-07-12T04:58:18.226Z,10.73
2017-07-12T05:00:46.534Z,12.30
2017-07-12T05:03:14.835Z,11.50
2017-07-12T05:05:43.178Z,12.10
2017-07-12T05:08:11.478Z,11.37
2017-07-12T05:10:41.600Z,11.50
2017-07-12T05:13:09.931Z,12.57
2017-07-12T05:15:38.277Z,10.33
2017-07-12T05:18:06.569Z,10.50
2017-07-12T05:20:34.861Z,10.43
2017-07-12T05:23:03.214Z,8.80
2017-07-12T05:25:31.513Z,9.00
2017-07-12T05:27:59.822Z,11.10
2017-07-12T05:30:28.160Z,11.07
2017-07-12T05:32:56.463Z,7.07
2017-07-12T05:35:24.850Z,7.57
2017-07-12T05:37:53.237Z,7.37
2017-07-12T05:40:21.541Z,7.07
2017-07-12T05:42:49.896Z,7.03
2017-07-12T05:45:18.190Z,9.07
2017-07-12T05:47:46.494Z,8.93
2017-07-12T05:50:14.830Z,8.40
2017-07-12T05:52:43.122Z,8.40
2017-07-12T05:55:11.454Z,7.53
2017-07-12T05:57:40.522Z,6.90
2017-07-12T06:00:08.813Z,9.43
2017-07-12T06:02:37.148Z,7.80
2017-07-12T06:05:05.438Z,7.63
2017-07-12T06:07:33.769Z,9.20
2017-07-12T06:10:02.108Z,11.10
2017-07-12T06:12:31.160Z,5.63
2017-07-12T06:14:59.487Z,6.23
2017-07-12T06:17:27.826Z,4.97
2017-07-12T06:19:56.122Z,6.80
2017-07-12T06:22:24.414Z,5.87
2017-07-12T06:24:52.746Z,6.53
2017-07-12T06:27:21.758Z,5.70
2017-07-12T06:29:50.860Z,6.50
2017-07-12T06:32:19.145Z,5.23
2017-07-12T06:34:47.530Z,4.30
2017-07-12T06:37:15.875Z,6.53
2017-07-12T06:39:44.249Z,5.67
2017-07-12T06:42:12.599Z,4.97
2017-07-12T06:44:41.668Z,3.80
2017-07-12T06:47:09.954Z,3.57
2017-07-12T06:49:38.298Z,3.83
2017-07-12T06:52:06.673Z,8.37
2017-07-12T06:54:34.968Z,9.83
2017-07-12T06:57:03.301Z,8.27
2017-07-12T06:59:31.596Z,7.90
2017-07-12T07:01:59.883Z,14.27
2017-07-12T07:04:28.202Z,9.70
2017-07-12T07:06:56.617Z,6.27
2017-07-12T07:09:24.909Z,7.70
2017-07-12T07:11:53.224Z,6.50
2017-07-12T07:14:21.570Z,7.43
2017-07-12T07:16:49.863Z,8.40
2017-07-12T07:19:18.168Z,9.07
2017-07-12T07:21:46.501Z,5.47
2017-07-12T07:24:15.553Z,10.37
2017-07-12T07:26:43.883Z,9.50
2017-07-12T07:29:12.213Z,7.77
2017-07-12T07:31:41.314Z,8.53
2017-07-12T07:34:09.615Z,11.60
2017-07-12T07:36:37.912Z,9.43
2017-07-12T07:39:06.256Z,11.20
2017-07-12T07:41:34.578Z,10.10
2017-07-12T07:44:02.939Z,10.70
2017-07-12T07:46:32.053Z,10.33
2017-07-12T07:49:00.356Z,18.50
2017-07-12T07:51:28.646Z,11.17
2017-07-12T07:53:56.982Z,14.47
2017-07-12T07:56:25.286Z,16.47
2017-07-12T07:58:53.586Z,17.17
2017-07-12T08:01:21.933Z,12.50
2017-07-12T08:03:50.233Z,11.33
2017-07-12T08:06:18.554Z,12.63
2017-07-12T08:08:46.891Z,12.23
2017-07-12T08:11:15.191Z,15.13
2017-07-12T08:13:44.668Z,16.77
2017-07-12T08:16:12.979Z,15.13
2017-07-12T08:18:41.278Z,16.20
2017-07-12T08:21:09.632Z,18.60
2017-07-12T08:23:38.702Z,18.73
2017-07-12T08:26:07.005Z,22.33
2017-07-12T08:28:35.366Z,18.63
2017-07-12T08:31:04.434Z,18.63
2017-07-12T08:33:32.736Z,15.53
2017-07-12T08:36:01.073Z,22.23
2017-07-12T08:38:29.376Z,18.60
2017-07-12T08:40:57.675Z,22.03
2017-07-12T08:43:26.051Z,17.47
2017-07-12T08:45:54.366Z,21.30
2017-07-12T08:48:22.661Z,24.57
2017-07-12T08:50:50.998Z,23.80
2017-07-12T08:53:20.085Z,25.07
2017-07-12T08:55:48.430Z,36.63
2017-07-12T08:58:17.494Z,22.00
2017-07-12T09:00:45.810Z,29.27
2017-07-12T09:03:14.183Z,39.43
2017-07-12T09:05:42.481Z,25.13
2017-07-12T09:08:10.778Z,37.90
2017-07-12T09:10:39.923Z,27.50
2017-07-12T09:13:08.230Z,52.00
2017-07-12T09:15:36.529Z,25.93
2017-07-12T09:18:04.866Z,32.03
2017-07-12T09:20:33.186Z,29.83
2017-07-12T09:23:01.495Z,47.23
2017-07-12T09:35:23.801Z,35.83
2017-07-12T09:37:52.130Z,31.50
2017-07-12T09:40:20.440Z,26.87
2017-07-12T09:42:49.561Z,34.17
2017-07-12T09:45:18.630Z,25.83
2017-07-12T09:47:46.942Z,35.23
2017-07-12T09:50:15.290Z,36.40
2017-07-12T09:52:44.360Z,30.73
2017-07-12T09:55:12.669Z,30.57
2017-07-12T09:57:41.019Z,26.37
2017-07-12T10:00:10.085Z,31.70
2017-07-12T10:02:38.381Z,24.80
2017-07-12T10:05:06.754Z,20.00
2017-07-12T10:07:35.106Z,22.73
2017-07-12T10:10:03.421Z,19.87
2017-07-12T10:12:31.751Z,13.30
2017-07-12T10:15:00.819Z,13.53
2017-07-12T10:17:29.112Z,29.67
2017-07-12T10:19:57.429Z,13.00
2017-07-12T10:22:25.816Z,12.80
2017-07-12T10:24:54.237Z,17.97
2017-07-12T10:27:22.547Z,11.03
2017-07-12T10:29:50.846Z,12.93
2017-07-12T10:32:19.189Z,13.83
2017-07-12T10:34:48.249Z,16.57
2017-07-12T10:37:16.549Z,14.30
2017-07-12T10:39:44.959Z,13.20
2017-07-12T10:42:13.252Z,8.00
2017-07-12T10:44:41.590Z,10.00
2017-07-12T10:47:09.883Z,8.93
2017-07-12T10:49:45.955Z,10.53
2017-07-12T10:52:06.563Z,8.10
2017-07-12T10:54:34.860Z,8.47
2017-07-12T10:57:03.162Z,9.53
2017-07-12T10:59:31.504Z,7.10
2017-07-12T11:01:59.796Z,7.50
2017-07-12T11:04:28.094Z,8.73
2017-07-12T11:06:56.446Z,7.17
2017-07-12T11:09:25.568Z,7.30
2017-07-12T11:11:54.639Z,10.27
2017-07-12T11:14:22.951Z,7.13
2017-07-12T11:16:51.282Z,10.07
2017-07-12T11:19:19.582Z,9.10
2017-07-12T11:21:48.675Z,8.67
2017-07-12T11:24:16.980Z,11.43
2017-07-12T11:26:45.306Z,8.73
2017-07-12T11:29:13.596Z,9.87
2017-07-12T11:31:41.895Z,13.17
2017-07-12T11:34:10.246Z,10.03
2017-07-12T11:36:38.710Z,11.87
2017-07-12T11:39:07.005Z,13.43
2017-07-12T11:41:35.323Z,12.20
2017-07-12T11:44:04.389Z,17.70
2017-07-12T11:46:32.736Z,19.83
2017-07-12T11:49:01.046Z,15.20
2017-07-12T11:51:29.341Z,11.63
2017-07-12T11:53:58.408Z,14.83
2017-07-12T11:56:26.750Z,11.50
2017-07-12T11:58:55.050Z,11.30
2017-07-12T12:01:23.404Z,9.03
2017-07-12T12:03:51.702Z,10.50
2017-07-12T12:06:20.002Z,11.00
2017-07-12T12:08:48.330Z,10.77
2017-07-12T12:11:16.626Z,8.90
2017-07-12T12:13:45.040Z,10.90
2017-07-12T12:16:13.337Z,7.13
2017-07-12T12:18:41.624Z,8.13
2017-07-12T12:21:09.955Z,6.00
2017-07-12T12:23:38.287Z,4.27
2017-07-12T12:26:07.367Z,4.00
2017-07-12T12:28:35.683Z,3.17
2017-07-12T12:31:04.021Z,2.60
2017-07-12T12:33:32.314Z,2.60
2017-07-12T12:36:00.606Z,2.70
2017-07-12T12:38:28.927Z,2.70
2017-07-12T12:40:57.237Z,2.70
2017-07-12T12:43:26.337Z,3.70
2017-07-12T12:45:54.630Z,2.87
2017-07-12T12:48:22.955Z,1.80
2017-07-12T12:50:51.302Z,1.70
2017-07-12T12:53:19.598Z,2.27
2017-07-12T12:55:47.900Z,2.27
2017-07-12T12:58:16.297Z,2.00
2017-07-12T13:00:44.584Z,2.33
2017-07-12T13:03:13.642Z,2.13
2017-07-12T13:05:42.062Z,2.27
2017-07-12T13:08:10.387Z,2.40
2017-07-12T13:10:38.690Z,2.83
2017-07-12T13:13:07.797Z,2.13
2017-07-12T13:15:36.090Z,2.13
2017-07-12T13:18:04.398Z,2.80
2017-07-12T13:20:32.746Z,3.40
2017-07-12T13:23:01.049Z,2.67
2017-07-12T13:25:29.351Z,1.97
2017-07-12T13:27:57.735Z,1.83
2017-07-12T13:30:26.835Z,1.73
2017-07-12T13:32:55.138Z,1.23
2017-07-12T13:35:23.467Z,1.37
2017-07-12T13:37:52.544Z,2.47
2017-07-12T13:40:20.842Z,1.70
2017-07-12T13:42:49.186Z,1.70
2017-07-12T13:45:17.505Z,1.27
2017-07-12T13:47:46.568Z,0.90
2017-07-12T13:50:14.998Z,2.80
2017-07-12T13:52:43.214Z,1.40
2017-07-12T13:55:12.279Z,0.77
2017-07-12T13:57:40.607Z,3.70
2017-07-12T14:00:08.964Z,1.07
2017-07-12T14:02:37.253Z,0.90
2017-07-12T14:05:05.545Z,2.20
2017-07-12T14:07:34.659Z,1.10
2017-07-12T14:10:03.717Z,1.67
2017-07-12T14:12:32.008Z,2.30
2017-07-12T14:15:00.337Z,1.20
2017-07-12T14:17:28.646Z,2.27
2017-07-12T14:19:56.944Z,5.30
2017-07-12T14:22:25.290Z,1.83
2017-07-12T14:24:53.641Z,1.57
2017-07-12T14:27:21.963Z,1.57
2017-07-12T14:29:50.293Z,1.30
2017-07-12T14:32:18.637Z,1.47
2017-07-12T14:34:46.977Z,1.17
2017-07-12T14:37:15.274Z,1.17
2017-07-12T14:39:43.596Z,1.17
2017-07-12T14:42:11.923Z,1.80
2017-07-12T14:44:40.276Z,2.03
2017-07-12T14:47:08.578Z,2.30
2017-07-12T14:49:36.873Z,1.20
2017-07-12T14:52:05.195Z,1.70
2017-07-12T14:54:33.495Z,1.43
2017-07-12T14:57:01.840Z,1.37
2017-07-12T14:59:30.134Z,1.73
2017-07-12T15:01:58.437Z,2.17
2017-07-12T15:04:26.762Z,1.90
2017-07-12T15:06:55.056Z,2.30
2017-07-12T15:09:23.393Z,8.23
2017-07-12T15:11:52.453Z,0.80
2017-07-12T15:14:20.749Z,2.77
2017-07-12T15:16:49.154Z,1.73
2017-07-12T15:19:17.466Z,0.90
2017-07-12T15:21:45.757Z,2.50
2017-07-12T15:24:14.096Z,2.90
2017-07-12T15:26:42.392Z,1.50
2017-07-12T15:29:10.692Z,3.13
2017-07-12T15:31:39.793Z,2.20
2017-07-12T15:34:08.085Z,2.00
2017-07-12T15:36:36.393Z,3.00
2017-07-12T15:39:04.710Z,1.50
2017-07-12T15:41:33.007Z,0.93
2017-07-12T15:44:01.345Z,3.37
2017-07-12T15:46:30.411Z,0.67
2017-07-12T15:48:58.703Z,1.00
2017-07-12T15:51:27.043Z,1.00
2017-07-12T15:53:55.345Z,0.97
2017-07-12T15:56:23.639Z,0.97
2017-07-12T15:58:51.965Z,1.47
2017-07-12T16:01:20.264Z,1.37
2017-07-12T16:03:48.634Z,0.87
2017-07-12T16:06:16.929Z,1.33
2017-07-12T16:08:45.225Z,1.50
2017-07-12T16:11:13.565Z,0.63
2017-07-12T16:13:41.869Z,0.83
2017-07-12T16:16:10.169Z,0.70
2017-07-12T16:18:38.506Z,1.00
2017-07-12T16:21:07.605Z,1.27
2017-07-12T16:23:35.905Z,1.80
2017-07-12T16:26:04.248Z,1.07
2017-07-12T16:28:32.534Z,0.67
2017-07-12T16:31:01.683Z,0.87
2017-07-12T16:33:29.977Z,0.60
2017-07-12T16:35:58.270Z,1.07
2017-07-12T16:38:26.608Z,3.33
2017-07-12T16:40:54.913Z,0.70
2017-07-12T16:43:23.201Z,0.70
2017-07-12T16:45:51.537Z,0.70
2017-07-12T16:48:19.850Z,0.60
2017-07-12T16:50:48.145Z,0.87
2017-07-12T16:53:16.482Z,1.00
2017-07-12T16:55:45.545Z,2.10
2017-07-12T16:58:13.842Z,0.60
2017-07-12T17:00:42.172Z,1.30
2017-07-12T17:03:10.464Z,1.03
2017-07-12T17:05:38.761Z,0.90
2017-07-12T17:08:07.100Z,1.37
2017-07-12T17:10:35.406Z,1.70
2017-07-12T17:13:03.725Z,1.80
2017-07-12T17:15:32.100Z,1.70
2017-07-12T17:18:00.398Z,1.93
2017-07-12T17:20:28.690Z,2.53
2017-07-12T17:22:57.030Z,2.70
2017-07-12T17:25:25.321Z,1.90
2017-07-12T17:27:53.618Z,4.30
2017-07-12T17:30:22.048Z,2.53
2017-07-12T17:32:50.348Z,1.90
2017-07-12T17:35:18.652Z,2.40
2017-07-12T17:37:47.212Z,2.70
2017-07-12T17:40:18.104Z,1.97
2017-07-12T17:42:46.484Z,1.63
2017-07-12T17:45:15.873Z,1.50
2017-07-12T17:47:45.252Z,1.80
2017-07-12T17:50:14.044Z,2.20
2017-07-12T17:52:42.436Z,1.03
2017-07-12T17:55:10.790Z,1.60
2017-07-12T17:57:39.134Z,2.63
2017-07-12T18:00:08.308Z,1.40
2017-07-12T18:02:37.427Z,1.70
2017-07-12T18:05:05.741Z,3.50
2017-07-12T18:07:34.043Z,1.70
2017-07-12T18:10:03.162Z,1.53
2017-07-12T18:12:34.943Z,1.40
2017-07-12T18:15:04.217Z,1.60
2017-07-12T18:17:37.585Z,1.50
2017-07-12T18:20:06.020Z,1.77
2017-07-12T18:22:36.321Z,2.20
2017-07-12T18:25:12.742Z,2.23
2017-07-12T18:27:41.108Z,2.60
2017-07-12T18:30:09.418Z,2.87
2017-07-12T18:32:38.785Z,3.70
2017-07-12T18:35:07.157Z,2.93
2017-07-12T18:37:35.457Z,2.83
2017-07-12T18:40:03.755Z,2.83
2017-07-12T18:42:32.100Z,2.97
2017-07-12T18:45:00.389Z,3.27
2017-07-12T18:47:28.678Z,3.10
2017-07-12T18:49:57.013Z,2.90
2017-07-12T18:52:25.310Z,2.57
2017-07-12T18:54:53.607Z,2.93
2017-07-12T18:57:21.945Z,3.60
2017-07-12T18:59:50.244Z,3.90
2017-07-12T19:02:18.556Z,4.60
2017-07-12T19:04:47.192Z,3.30
2017-07-12T19:07:16.258Z,3.90
2017-07-12T19:09:44.576Z,2.93
2017-07-12T19:12:12.906Z,6.60
2017-07-12T19:14:41.217Z,3.40
2017-07-12T19:17:10.356Z,3.33
2017-07-12T19:19:38.659Z,3.10
2017-07-12T19:22:06.976Z,3.63
2017-07-12T19:24:35.351Z,4.60
2017-07-12T19:27:03.653Z,3.57
2017-07-12T19:29:31.956Z,3.20
2017-07-12T19:32:00.313Z,5.60
2017-07-12T19:34:29.376Z,2.83
2017-07-12T19:36:57.718Z,3.37
2017-07-12T19:39:26.016Z,4.00
2017-07-12T19:41:54.316Z,3.50
2017-07-12T19:44:22.677Z,3.60
2017-07-12T19:46:50.993Z,3.40
2017-07-12T19:49:19.293Z,3.10
2017-07-12T19:51:48.400Z,5.33
2017-07-12T19:54:17.470Z,3.93
2017-07-12T19:56:45.783Z,3.60
2017-07-12T19:59:14.153Z,3.20
2017-07-12T20:01:42.463Z,6.70
2017-07-12T20:04:10.786Z,3.43
2017-07-12T20:06:39.121Z,3.23
2017-07-12T20:09:07.445Z,3.33
2017-07-12T20:11:35.861Z,4.33
2017-07-12T20:14:04.165Z,3.40
2017-07-12T20:16:32.465Z,4.17
2017-07-12T20:19:00.783Z,2.90
2017-07-12T20:21:29.934Z,5.73
2017-07-12T20:23:58.245Z,2.27
2017-07-12T20:26:26.666Z,5.00
2017-07-12T20:28:55.035Z,2.33
2017-07-12T20:31:23.367Z,1.63
2017-07-12T20:33:51.675Z,2.50
2017-07-12T20:36:20.019Z,2.80
2017-07-12T20:38:48.333Z,5.53
2017-07-12T20:41:16.637Z,2.10
2017-07-12T20:43:44.956Z,3.03
2017-07-12T20:46:13.259Z,6.00
2017-07-12T20:48:41.663Z,4.37
2017-07-12T20:51:09.961Z,3.60
2017-07-12T20:53:38.298Z,2.93
2017-07-12T20:56:06.621Z,3.50
2017-07-12T20:58:34.992Z,3.30
2017-07-12T21:01:03.286Z,4.93
2017-07-12T21:03:32.354Z,6.90
2017-07-12T21:06:00.682Z,2.73
2017-07-12T21:08:28.981Z,3.07
2017-07-12T21:10:57.273Z,2.70
2017-07-12T21:13:25.645Z,3.80
2017-07-12T21:15:54.714Z,3.33
2017-07-12T21:18:23.051Z,2.60
2017-07-12T21:20:51.402Z,4.13
2017-07-12T21:23:20.473Z,2.80
2017-07-12T21:25:48.777Z,3.47
2017-07-12T21:28:17.143Z,2.53
2017-07-12T21:30:45.437Z,5.13
2017-07-12T21:33:14.531Z,4.33
2017-07-12T21:35:42.861Z,5.10
2017-07-12T21:38:11.205Z,3.53
2017-07-12T21:40:39.505Z,5.63
2017-07-12T21:43:07.802Z,3.60
2017-07-12T21:45:36.136Z,2.50
2017-07-12T21:48:05.200Z,5.87
2017-07-12T21:50:34.393Z,6.47
2017-07-12T21:53:02.731Z,5.37
2017-07-12T21:55:54.618Z,3.90
2017-07-12T21:58:46.468Z,5.33
2017-07-12T22:01:38.345Z,3.67
2017-07-12T22:04:30.089Z,7.43
2017-07-12T22:07:22.004Z,7.43
2017-07-12T22:10:13.693Z,4.40
2017-07-12T22:13:05.620Z,7.10
2017-07-12T22:15:58.151Z,3.90
2017-07-12T22:18:49.945Z,3.20
2017-07-12T22:21:41.544Z,3.97
2017-07-12T22:24:33.593Z,3.30
2017-07-12T22:27:25.484Z,6.60
2017-07-12T22:30:17.289Z,8.63
2017-07-12T22:33:09.835Z,6.53
2017-07-12T22:36:01.722Z,7.00
2017-07-12T22:38:36.389Z,6.50
2017-07-12T22:41:10.967Z,8.87
2017-07-12T22:43:39.372Z,8.00
2017-07-12T22:46:08.434Z,4.10
2017-07-12T22:48:37.652Z,6.20
2017-07-12T22:51:05.977Z,5.60
2017-07-12T22:53:34.303Z,4.20
2017-07-12T22:56:02.641Z,4.90
2017-07-12T22:58:30.992Z,7.73
2017-07-12T23:00:59.287Z,5.70
2017-07-12T23:03:27.595Z,5.03
2017-07-12T23:05:55.990Z,7.03
2017-07-12T23:08:24.281Z,7.07
2017-07-12T23:10:53.186Z,5.37
2017-07-12T23:13:21.794Z,5.47
2017-07-12T23:15:50.105Z,6.63
2017-07-12T23:18:18.408Z,6.70
2017-07-12T23:20:46.749Z,4.30
2017-07-12T23:23:15.057Z,11.07
2017-07-12T23:25:43.359Z,5.03
2017-07-12T23:28:11.711Z,6.73
2017-07-12T23:30:40.009Z,8.67
2017-07-12T23:33:08.346Z,6.13
2017-07-12T23:35:36.679Z,4.80
2017-07-12T23:38:04.987Z,4.17
2017-07-12T23:40:33.311Z,4.20
2017-07-12T23:43:02.449Z,4.20
2017-07-12T23:45:31.521Z,6.93
2017-07-12T23:47:59.825Z,6.00
2017-07-12T23:50:28.149Z,6.43
2017-07-12T23:52:56.499Z,4.40
2017-07-12T23:55:25.582Z,2.80
2017-07-12T23:57:53.884Z,6.00
